sensor_id;sensor_type;location;lat;lon;timestamp;temperature;humidity
26745;DHT22;14342;50.960;13.880;2023-07-13T00:00:50;22.30;83.30
26745;DHT22;14342;50.960;13.880;2023-07-13T00:01:51;22.30;83.20
26745;DHT22;14342;50.960;13.880;2023-07-13T00:02:53;22.40;83.60
26745;DHT22;14342;50.960;13.880;2023-07-13T00:03:53;22.40;83.60
26745;DHT22;14342;50.960;13.880;2023-07-13T00:04:55;22.50;83.70
26745;DHT22;14342;50.960;13.880;2023-07-13T00:05:59;22.50;83.80
26745;DHT22;14342;50.960;13.880;2023-07-13T00:07:01;22.50;83.50
26745;DHT22;14342;50.960;13.880;2023-07-13T00:08:01;22.60;83.70
26745;DHT22;14342;50.960;13.880;2023-07-13T00:09:03;22.60;83.50
26745;DHT22;14342;50.960;13.880;2023-07-13T00:10:04;22.60;83.50
26745;DHT22;14342;50.960;13.880;2023-07-13T00:11:05;22.60;83.90
26745;DHT22;14342;50.960;13.880;2023-07-13T00:12:21;22.60;83.80
26745;DHT22;14342;50.960;13.880;2023-07-13T00:13:23;22.70;84.00
26745;DHT22;14342;50.960;13.880;2023-07-13T00:14:24;22.70;83.60
26745;DHT22;14342;50.960;13.880;2023-07-13T00:15:26;22.60;82.70
26745;DHT22;14342;50.960;13.880;2023-07-13T00:16:28;23.00;82.60
26745;DHT22;14342;50.960;13.880;2023-07-13T00:17:29;22.70;82.00
26745;DHT22;14342;50.960;13.880;2023-07-13T00:18:30;22.60;81.60
26745;DHT22;14342;50.960;13.880;2023-07-13T00:19:31;22.60;81.90
26745;DHT22;14342;50.960;13.880;2023-07-13T00:20:32;22.70;81.90
26745;DHT22;14342;50.960;13.880;2023-07-13T00:21:33;22.70;82.20
26745;DHT22;14342;50.960;13.880;2023-07-13T00:22:35;22.80;82.20
26745;DHT22;14342;50.960;13.880;2023-07-13T00:23:36;22.80;81.70
26745;DHT22;14342;50.960;13.880;2023-07-13T00:24:38;23.00;81.60
26745;DHT22;14342;50.960;13.880;2023-07-13T00:25:41;23.00;81.50
26745;DHT22;14342;50.960;13.880;2023-07-13T00:26:43;23.10;82.80
26745;DHT22;14342;50.960;13.880;2023-07-13T00:27:46;23.30;84.60
26745;DHT22;14342;50.960;13.880;2023-07-13T00:28:48;23.30;85.40
26745;DHT22;14342;50.960;13.880;2023-07-13T00:29:49;23.40;86.00
26745;DHT22;14342;50.960;13.880;2023-07-13T00:30:50;23.30;87.40
26745;DHT22;14342;50.960;13.880;2023-07-13T00:31:52;23.30;88.60
26745;DHT22;14342;50.960;13.880;2023-07-13T00:32:53;23.20;90.40
26745;DHT22;14342;50.960;13.880;2023-07-13T00:33:54;23.10;92.10
26745;DHT22;14342;50.960;13.880;2023-07-13T00:34:55;23.00;94.40
26745;DHT22;14342;50.960;13.880;2023-07-13T00:35:57;22.90;97.20
26745;DHT22;14342;50.960;13.880;2023-07-13T00:36:58;22.90;99.00
26745;DHT22;14342;50.960;13.880;2023-07-13T00:38:00;23.00;97.30
26745;DHT22;14342;50.960;13.880;2023-07-13T00:39:00;22.90;97.40
26745;DHT22;14342;50.960;13.880;2023-07-13T00:40:02;22.70;97.20
26745;DHT22;14342;50.960;13.880;2023-07-13T00:41:03;22.30;96.50
26745;DHT22;14342;50.960;13.880;2023-07-13T00:42:05;22.10;94.30
26745;DHT22;14342;50.960;13.880;2023-07-13T00:43:09;22.00;95.00
26745;DHT22;14342;50.960;13.880;2023-07-13T00:44:11;21.90;98.40
26745;DHT22;14342;50.960;13.880;2023-07-13T00:46:33;22.00;99.90
26745;DHT22;14342;50.960;13.880;2023-07-13T00:47:36;22.20;99.90
26745;DHT22;14342;50.960;13.880;2023-07-13T00:48:38;22.00;99.90
26745;DHT22;14342;50.960;13.880;2023-07-13T00:49:39;22.10;99.90
26745;DHT22;14342;50.960;13.880;2023-07-13T00:50:40;22.10;99.90
26745;DHT22;14342;50.960;13.880;2023-07-13T00:51:43;21.90;99.90
26745;DHT22;14342;50.960;13.880;2023-07-13T00:52:46;21.70;99.90
26745;DHT22;14342;50.960;13.880;2023-07-13T00:53:47;21.20;99.90
26745;DHT22;14342;50.960;13.880;2023-07-13T00:54:48;20.80;99.90
26745;DHT22;14342;50.960;13.880;2023-07-13T00:55:49;20.40;99.90
26745;DHT22;14342;50.960;13.880;2023-07-13T00:56:54;19.90;99.90
26745;DHT22;14342;50.960;13.880;2023-07-13T00:57:55;19.70;99.90
26745;DHT22;14342;50.960;13.880;2023-07-13T00:58:57;19.70;99.90
26745;DHT22;14342;50.960;13.880;2023-07-13T00:59:58;19.70;99.90
26745;DHT22;14342;50.960;13.880;2023-07-13T01:01:06;19.70;99.90
26745;DHT22;14342;50.960;13.880;2023-07-13T01:02:07;19.80;99.90
26745;DHT22;14342;50.960;13.880;2023-07-13T01:03:10;19.80;99.90
26745;DHT22;14342;50.960;13.880;2023-07-13T01:04:10;19.80;99.90
26745;DHT22;14342;50.960;13.880;2023-07-13T01:05:14;19.90;99.90
26745;DHT22;14342;50.960;13.880;2023-07-13T01:06:15;20.00;99.90
26745;DHT22;14342;50.960;13.880;2023-07-13T01:07:16;20.10;99.90
26745;DHT22;14342;50.960;13.880;2023-07-13T01:08:19;20.20;99.90
26745;DHT22;14342;50.960;13.880;2023-07-13T01:09:20;20.30;99.90
26745;DHT22;14342;50.960;13.880;2023-07-13T01:10:21;20.40;99.90
26745;DHT22;14342;50.960;13.880;2023-07-13T01:11:23;20.50;99.90
26745;DHT22;14342;50.960;13.880;2023-07-13T01:12:23;20.40;99.90
26745;DHT22;14342;50.960;13.880;2023-07-13T01:13:25;20.50;99.90
26745;DHT22;14342;50.960;13.880;2023-07-13T01:14:25;20.50;99.90
26745;DHT22;14342;50.960;13.880;2023-07-13T01:15:34;20.50;99.90
26745;DHT22;14342;50.960;13.880;2023-07-13T01:16:35;20.50;99.90
26745;DHT22;14342;50.960;13.880;2023-07-13T01:17:37;20.50;99.90
26745;DHT22;14342;50.960;13.880;2023-07-13T01:18:39;20.60;99.90
26745;DHT22;14342;50.960;13.880;2023-07-13T01:19:42;20.60;99.90
26745;DHT22;14342;50.960;13.880;2023-07-13T01:20:47;20.60;99.90
26745;DHT22;14342;50.960;13.880;2023-07-13T01:21:49;20.60;99.90
26745;DHT22;14342;50.960;13.880;2023-07-13T01:22:50;20.60;99.90
26745;DHT22;14342;50.960;13.880;2023-07-13T01:23:52;20.60;99.90
26745;DHT22;14342;50.960;13.880;2023-07-13T01:24:53;20.60;99.90
26745;DHT22;14342;50.960;13.880;2023-07-13T01:25:55;20.60;99.90
26745;DHT22;14342;50.960;13.880;2023-07-13T01:26:56;20.60;99.90
26745;DHT22;14342;50.960;13.880;2023-07-13T01:27:57;20.60;99.90
26745;DHT22;14342;50.960;13.880;2023-07-13T01:28:58;20.60;99.90
26745;DHT22;14342;50.960;13.880;2023-07-13T01:29:59;20.60;99.90
26745;DHT22;14342;50.960;13.880;2023-07-13T01:31:04;20.90;99.90
26745;DHT22;14342;50.960;13.880;2023-07-13T01:32:06;20.50;99.90
26745;DHT22;14342;50.960;13.880;2023-07-13T01:33:08;20.40;99.90
26745;DHT22;14342;50.960;13.880;2023-07-13T01:34:10;20.20;99.90
26745;DHT22;14342;50.960;13.880;2023-07-13T01:35:10;20.10;99.90
26745;DHT22;14342;50.960;13.880;2023-07-13T01:36:14;20.00;99.90
26745;DHT22;14342;50.960;13.880;2023-07-13T01:37:14;19.90;99.90
26745;DHT22;14342;50.960;13.880;2023-07-13T01:38:17;19.80;99.90
26745;DHT22;14342;50.960;13.880;2023-07-13T01:39:18;19.80;99.90
26745;DHT22;14342;50.960;13.880;2023-07-13T01:40:19;19.80;99.90
26745;DHT22;14342;50.960;13.880;2023-07-13T01:41:20;19.70;99.90
26745;DHT22;14342;50.960;13.880;2023-07-13T01:42:21;19.70;99.90
26745;DHT22;14342;50.960;13.880;2023-07-13T01:43:22;19.70;99.90
26745;DHT22;14342;50.960;13.880;2023-07-13T01:44:24;19.70;99.90
26745;DHT22;14342;50.960;13.880;2023-07-13T01:45:25;19.70;99.90
26745;DHT22;14342;50.960;13.880;2023-07-13T01:46:26;19.60;99.90
26745;DHT22;14342;50.960;13.880;2023-07-13T01:47:27;19.50;99.90
26745;DHT22;14342;50.960;13.880;2023-07-13T01:48:31;19.50;99.90
26745;DHT22;14342;50.960;13.880;2023-07-13T01:49:31;19.50;99.90
26745;DHT22;14342;50.960;13.880;2023-07-13T01:50:33;19.40;99.90
26745;DHT22;14342;50.960;13.880;2023-07-13T01:51:35;19.70;99.90
26745;DHT22;14342;50.960;13.880;2023-07-13T01:52:36;19.50;99.90
26745;DHT22;14342;50.960;13.880;2023-07-13T01:53:37;19.40;99.90
26745;DHT22;14342;50.960;13.880;2023-07-13T01:54:38;19.40;99.90
26745;DHT22;14342;50.960;13.880;2023-07-13T01:55:39;19.50;99.90
26745;DHT22;14342;50.960;13.880;2023-07-13T01:56:40;19.50;99.90
26745;DHT22;14342;50.960;13.880;2023-07-13T01:57:42;19.50;99.90
26745;DHT22;14342;50.960;13.880;2023-07-13T01:58:44;19.60;99.90
26745;DHT22;14342;50.960;13.880;2023-07-13T01:59:45;19.60;99.90
26745;DHT22;14342;50.960;13.880;2023-07-13T02:00:47;19.60;99.90
26745;DHT22;14342;50.960;13.880;2023-07-13T02:01:48;19.60;99.90
26745;DHT22;14342;50.960;13.880;2023-07-13T02:02:49;19.60;99.90
26745;DHT22;14342;50.960;13.880;2023-07-13T02:03:50;19.60;99.90
26745;DHT22;14342;50.960;13.880;2023-07-13T02:04:52;19.50;99.90
26745;DHT22;14342;50.960;13.880;2023-07-13T02:05:52;19.40;99.90
26745;DHT22;14342;50.960;13.880;2023-07-13T02:06:55;19.40;99.90
26745;DHT22;14342;50.960;13.880;2023-07-13T02:07:56;19.30;99.90
26745;DHT22;14342;50.960;13.880;2023-07-13T02:08:58;19.30;99.90
26745;DHT22;14342;50.960;13.880;2023-07-13T02:09:58;19.10;99.90
26745;DHT22;14342;50.960;13.880;2023-07-13T02:11:00;19.10;99.90
26745;DHT22;14342;50.960;13.880;2023-07-13T02:12:00;19.10;99.90
26745;DHT22;14342;50.960;13.880;2023-07-13T02:13:04;19.10;99.90
26745;DHT22;14342;50.960;13.880;2023-07-13T02:14:04;19.10;99.90
26745;DHT22;14342;50.960;13.880;2023-07-13T02:15:06;19.00;99.90
26745;DHT22;14342;50.960;13.880;2023-07-13T02:16:07;18.90;99.90
26745;DHT22;14342;50.960;13.880;2023-07-13T02:17:09;18.90;99.90
26745;DHT22;14342;50.960;13.880;2023-07-13T02:18:10;18.90;99.90
26745;DHT22;14342;50.960;13.880;2023-07-13T02:19:11;18.90;99.90
26745;DHT22;14342;50.960;13.880;2023-07-13T02:20:12;18.90;99.90
26745;DHT22;14342;50.960;13.880;2023-07-13T02:21:13;18.90;99.90
26745;DHT22;14342;50.960;13.880;2023-07-13T02:22:15;19.00;99.90
26745;DHT22;14342;50.960;13.880;2023-07-13T02:23:16;19.00;99.90
26745;DHT22;14342;50.960;13.880;2023-07-13T02:24:17;19.00;99.90
26745;DHT22;14342;50.960;13.880;2023-07-13T02:25:19;19.00;99.90
26745;DHT22;14342;50.960;13.880;2023-07-13T02:26:21;19.10;99.90
26745;DHT22;14342;50.960;13.880;2023-07-13T02:27:21;19.10;99.90
26745;DHT22;14342;50.960;13.880;2023-07-13T02:28:22;19.20;99.90
26745;DHT22;14342;50.960;13.880;2023-07-13T02:29:23;19.30;99.90
26745;DHT22;14342;50.960;13.880;2023-07-13T02:30:24;19.30;99.90
26745;DHT22;14342;50.960;13.880;2023-07-13T02:31:25;19.30;99.90
26745;DHT22;14342;50.960;13.880;2023-07-13T02:32:26;19.20;99.90
26745;DHT22;14342;50.960;13.880;2023-07-13T02:33:28;19.20;99.90
26745;DHT22;14342;50.960;13.880;2023-07-13T02:34:28;19.10;99.90
26745;DHT22;14342;50.960;13.880;2023-07-13T02:35:30;19.10;99.90
26745;DHT22;14342;50.960;13.880;2023-07-13T02:36:30;19.10;99.90
26745;DHT22;14342;50.960;13.880;2023-07-13T02:37:33;19.00;99.90
26745;DHT22;14342;50.960;13.880;2023-07-13T02:38:34;19.00;99.90
26745;DHT22;14342;50.960;13.880;2023-07-13T02:39:36;18.90;99.90
26745;DHT22;14342;50.960;13.880;2023-07-13T02:40:36;18.90;99.90
26745;DHT22;14342;50.960;13.880;2023-07-13T02:41:38;18.90;99.90
26745;DHT22;14342;50.960;13.880;2023-07-13T02:42:39;19.10;99.90
26745;DHT22;14342;50.960;13.880;2023-07-13T02:43:40;19.00;99.90
26745;DHT22;14342;50.960;13.880;2023-07-13T02:44:41;19.00;99.90
26745;DHT22;14342;50.960;13.880;2023-07-13T02:45:43;19.00;99.90
26745;DHT22;14342;50.960;13.880;2023-07-13T02:46:43;19.00;99.90
26745;DHT22;14342;50.960;13.880;2023-07-13T02:47:45;19.00;99.90
26745;DHT22;14342;50.960;13.880;2023-07-13T02:48:46;19.00;99.90
26745;DHT22;14342;50.960;13.880;2023-07-13T02:49:47;19.00;99.90
26745;DHT22;14342;50.960;13.880;2023-07-13T02:50:48;19.10;99.90
26745;DHT22;14342;50.960;13.880;2023-07-13T02:51:49;19.10;99.90
26745;DHT22;14342;50.960;13.880;2023-07-13T02:52:51;19.10;99.90
26745;DHT22;14342;50.960;13.880;2023-07-13T02:53:53;19.10;99.90
26745;DHT22;14342;50.960;13.880;2023-07-13T02:54:53;19.00;99.90
26745;DHT22;14342;50.960;13.880;2023-07-13T02:55:55;18.90;99.90
26745;DHT22;14342;50.960;13.880;2023-07-13T02:56:55;18.90;99.90
26745;DHT22;14342;50.960;13.880;2023-07-13T02:57:57;18.90;99.90
26745;DHT22;14342;50.960;13.880;2023-07-13T02:58:57;18.90;99.90
26745;DHT22;14342;50.960;13.880;2023-07-13T02:59:59;18.90;99.90
26745;DHT22;14342;50.960;13.880;2023-07-13T03:00:59;19.00;99.90
26745;DHT22;14342;50.960;13.880;2023-07-13T03:02:07;19.00;99.90
26745;DHT22;14342;50.960;13.880;2023-07-13T03:03:07;19.00;99.90
26745;DHT22;14342;50.960;13.880;2023-07-13T03:04:09;19.00;99.90
26745;DHT22;14342;50.960;13.880;2023-07-13T03:05:09;19.00;99.90
26745;DHT22;14342;50.960;13.880;2023-07-13T03:06:13;19.10;99.90
26745;DHT22;14342;50.960;13.880;2023-07-13T03:07:14;19.20;99.90
26745;DHT22;14342;50.960;13.880;2023-07-13T03:08:17;19.60;99.90
26745;DHT22;14342;50.960;13.880;2023-07-13T03:09:18;19.30;99.90
26745;DHT22;14342;50.960;13.880;2023-07-13T03:10:20;19.30;99.90
26745;DHT22;14342;50.960;13.880;2023-07-13T03:11:20;19.30;99.90
26745;DHT22;14342;50.960;13.880;2023-07-13T03:12:22;19.40;99.90
26745;DHT22;14342;50.960;13.880;2023-07-13T03:13:22;19.40;99.90
26745;DHT22;14342;50.960;13.880;2023-07-13T03:14:24;19.40;99.90
26745;DHT22;14342;50.960;13.880;2023-07-13T03:15:24;19.40;99.90
26745;DHT22;14342;50.960;13.880;2023-07-13T03:16:26;19.50;99.90
26745;DHT22;14342;50.960;13.880;2023-07-13T03:17:26;19.50;99.90
26745;DHT22;14342;50.960;13.880;2023-07-13T03:18:28;19.50;99.90
26745;DHT22;14342;50.960;13.880;2023-07-13T03:19:29;19.50;99.90
26745;DHT22;14342;50.960;13.880;2023-07-13T03:20:32;19.60;99.90
26745;DHT22;14342;50.960;13.880;2023-07-13T03:21:32;19.60;99.90
26745;DHT22;14342;50.960;13.880;2023-07-13T03:22:34;19.60;99.90
26745;DHT22;14342;50.960;13.880;2023-07-13T03:23:36;19.70;99.90
26745;DHT22;14342;50.960;13.880;2023-07-13T03:24:37;19.70;99.90
26745;DHT22;14342;50.960;13.880;2023-07-13T03:25:38;19.70;99.90
26745;DHT22;14342;50.960;13.880;2023-07-13T03:26:39;19.70;99.90
26745;DHT22;14342;50.960;13.880;2023-07-13T03:27:40;19.70;99.90
26745;DHT22;14342;50.960;13.880;2023-07-13T03:28:41;19.70;99.90
26745;DHT22;14342;50.960;13.880;2023-07-13T03:29:42;19.80;99.90
26745;DHT22;14342;50.960;13.880;2023-07-13T03:30:44;19.80;99.90
26745;DHT22;14342;50.960;13.880;2023-07-13T03:31:44;19.80;99.90
26745;DHT22;14342;50.960;13.880;2023-07-13T03:32:46;19.70;99.90
26745;DHT22;14342;50.960;13.880;2023-07-13T03:33:46;19.70;99.90
26745;DHT22;14342;50.960;13.880;2023-07-13T03:34:49;19.80;99.90
26745;DHT22;14342;50.960;13.880;2023-07-13T03:35:49;19.80;99.90
26745;DHT22;14342;50.960;13.880;2023-07-13T03:36:53;19.80;99.90
26745;DHT22;14342;50.960;13.880;2023-07-13T03:37:55;19.80;99.90
26745;DHT22;14342;50.960;13.880;2023-07-13T03:38:58;19.60;99.90
26745;DHT22;14342;50.960;13.880;2023-07-13T03:40:00;19.60;99.90
26745;DHT22;14342;50.960;13.880;2023-07-13T03:41:00;19.30;99.90
26745;DHT22;14342;50.960;13.880;2023-07-13T03:42:02;19.20;99.90
26745;DHT22;14342;50.960;13.880;2023-07-13T03:43:03;19.00;99.90
26745;DHT22;14342;50.960;13.880;2023-07-13T03:44:04;18.90;99.90
26745;DHT22;14342;50.960;13.880;2023-07-13T03:45:05;18.80;99.90
26745;DHT22;14342;50.960;13.880;2023-07-13T03:46:07;18.70;99.90
26745;DHT22;14342;50.960;13.880;2023-07-13T03:47:07;18.70;99.90
26745;DHT22;14342;50.960;13.880;2023-07-13T03:48:09;18.80;99.90
26745;DHT22;14342;50.960;13.880;2023-07-13T03:49:10;18.80;99.90
26745;DHT22;14342;50.960;13.880;2023-07-13T03:50:12;18.80;99.90
26745;DHT22;14342;50.960;13.880;2023-07-13T03:51:13;19.00;99.90
26745;DHT22;14342;50.960;13.880;2023-07-13T03:52:14;18.90;99.90
26745;DHT22;14342;50.960;13.880;2023-07-13T03:53:16;18.90;99.90
26745;DHT22;14342;50.960;13.880;2023-07-13T03:54:18;19.00;99.90
26745;DHT22;14342;50.960;13.880;2023-07-13T03:55:19;19.00;99.90
26745;DHT22;14342;50.960;13.880;2023-07-13T03:56:20;19.00;99.90
26745;DHT22;14342;50.960;13.880;2023-07-13T03:57:21;19.00;99.90
26745;DHT22;14342;50.960;13.880;2023-07-13T03:58:25;19.10;99.90
26745;DHT22;14342;50.960;13.880;2023-07-13T03:59:28;19.20;99.90
26745;DHT22;14342;50.960;13.880;2023-07-13T04:00:30;19.40;99.90
26745;DHT22;14342;50.960;13.880;2023-07-13T04:01:30;19.20;99.90
26745;DHT22;14342;50.960;13.880;2023-07-13T04:02:32;19.30;99.90
26745;DHT22;14342;50.960;13.880;2023-07-13T04:03:32;19.60;99.90
26745;DHT22;14342;50.960;13.880;2023-07-13T04:04:34;19.40;99.90
26745;DHT22;14342;50.960;13.880;2023-07-13T04:05:35;19.30;99.90
26745;DHT22;14342;50.960;13.880;2023-07-13T04:06:36;19.30;99.90
26745;DHT22;14342;50.960;13.880;2023-07-13T04:07:37;19.40;99.90
26745;DHT22;14342;50.960;13.880;2023-07-13T04:08:38;19.40;99.90
26745;DHT22;14342;50.960;13.880;2023-07-13T04:09:40;19.40;99.90
26745;DHT22;14342;50.960;13.880;2023-07-13T04:10:42;19.40;99.90
26745;DHT22;14342;50.960;13.880;2023-07-13T04:11:43;19.50;99.90
26745;DHT22;14342;50.960;13.880;2023-07-13T04:12:44;19.50;99.90
26745;DHT22;14342;50.960;13.880;2023-07-13T04:13:45;19.60;99.90
26745;DHT22;14342;50.960;13.880;2023-07-13T04:14:47;19.60;99.90
26745;DHT22;14342;50.960;13.880;2023-07-13T04:15:48;19.60;99.90
26745;DHT22;14342;50.960;13.880;2023-07-13T04:16:48;19.60;99.90
26745;DHT22;14342;50.960;13.880;2023-07-13T04:17:50;19.70;99.90
26745;DHT22;14342;50.960;13.880;2023-07-13T04:18:51;19.70;99.90
26745;DHT22;14342;50.960;13.880;2023-07-13T04:19:54;19.70;99.90
26745;DHT22;14342;50.960;13.880;2023-07-13T04:20:55;19.70;99.90
26745;DHT22;14342;50.960;13.880;2023-07-13T04:21:57;19.80;99.90
26745;DHT22;14342;50.960;13.880;2023-07-13T04:22:57;19.80;99.90
26745;DHT22;14342;50.960;13.880;2023-07-13T04:23:59;19.80;99.90
26745;DHT22;14342;50.960;13.880;2023-07-13T04:25:01;19.90;99.90
26745;DHT22;14342;50.960;13.880;2023-07-13T04:26:02;19.90;99.90
26745;DHT22;14342;50.960;13.880;2023-07-13T04:27:03;19.90;99.90
26745;DHT22;14342;50.960;13.880;2023-07-13T04:28:05;19.90;99.90
26745;DHT22;14342;50.960;13.880;2023-07-13T04:29:06;20.00;99.90
26745;DHT22;14342;50.960;13.880;2023-07-13T04:30:08;20.00;99.90
26745;DHT22;14342;50.960;13.880;2023-07-13T04:31:09;20.00;99.90
26745;DHT22;14342;50.960;13.880;2023-07-13T04:32:10;20.00;99.90
26745;DHT22;14342;50.960;13.880;2023-07-13T04:33:11;20.00;99.90
26745;DHT22;14342;50.960;13.880;2023-07-13T04:34:13;20.00;99.90
26745;DHT22;14342;50.960;13.880;2023-07-13T04:35:13;20.10;99.90
26745;DHT22;14342;50.960;13.880;2023-07-13T04:36:15;20.00;99.90
26745;DHT22;14342;50.960;13.880;2023-07-13T04:37:16;20.10;99.90
26745;DHT22;14342;50.960;13.880;2023-07-13T04:38:17;20.10;99.90
26745;DHT22;14342;50.960;13.880;2023-07-13T04:39:18;20.50;99.90
26745;DHT22;14342;50.960;13.880;2023-07-13T04:40:22;20.10;99.90
26745;DHT22;14342;50.960;13.880;2023-07-13T04:41:22;20.10;99.90
26745;DHT22;14342;50.960;13.880;2023-07-13T04:42:24;20.20;99.90
26745;DHT22;14342;50.960;13.880;2023-07-13T04:43:24;20.20;99.90
26745;DHT22;14342;50.960;13.880;2023-07-13T04:44:26;20.20;99.90
26745;DHT22;14342;50.960;13.880;2023-07-13T04:45:26;20.20;99.90
26745;DHT22;14342;50.960;13.880;2023-07-13T04:46:28;20.20;99.90
26745;DHT22;14342;50.960;13.880;2023-07-13T04:47:29;20.30;99.90
26745;DHT22;14342;50.960;13.880;2023-07-13T04:48:30;20.30;99.90
26745;DHT22;14342;50.960;13.880;2023-07-13T04:49:31;20.30;99.90
26745;DHT22;14342;50.960;13.880;2023-07-13T04:50:32;20.30;99.90
26745;DHT22;14342;50.960;13.880;2023-07-13T04:51:33;20.30;99.90
26745;DHT22;14342;50.960;13.880;2023-07-13T04:52:34;20.30;99.90
26745;DHT22;14342;50.960;13.880;2023-07-13T04:53:35;20.30;99.90
26745;DHT22;14342;50.960;13.880;2023-07-13T04:54:36;20.30;99.90
26745;DHT22;14342;50.960;13.880;2023-07-13T04:55:40;20.30;99.90
26745;DHT22;14342;50.960;13.880;2023-07-13T04:56:41;20.30;99.90
26745;DHT22;14342;50.960;13.880;2023-07-13T04:57:42;20.30;99.90
26745;DHT22;14342;50.960;13.880;2023-07-13T04:58:43;20.40;99.90
26745;DHT22;14342;50.960;13.880;2023-07-13T04:59:44;20.40;99.90
26745;DHT22;14342;50.960;13.880;2023-07-13T05:00:45;20.40;99.90
26745;DHT22;14342;50.960;13.880;2023-07-13T05:01:46;20.40;99.90
26745;DHT22;14342;50.960;13.880;2023-07-13T05:02:47;20.40;99.90
26745;DHT22;14342;50.960;13.880;2023-07-13T05:03:48;20.40;99.90
26745;DHT22;14342;50.960;13.880;2023-07-13T05:04:49;20.40;99.90
26745;DHT22;14342;50.960;13.880;2023-07-13T05:05:54;20.40;99.90
26745;DHT22;14342;50.960;13.880;2023-07-13T05:06:55;20.40;99.90
26745;DHT22;14342;50.960;13.880;2023-07-13T05:07:57;20.40;99.90
26745;DHT22;14342;50.960;13.880;2023-07-13T05:08:57;20.40;99.90
26745;DHT22;14342;50.960;13.880;2023-07-13T05:09:59;20.50;99.90
26745;DHT22;14342;50.960;13.880;2023-07-13T05:11:01;20.50;99.90
26745;DHT22;14342;50.960;13.880;2023-07-13T05:12:03;20.50;99.90
26745;DHT22;14342;50.960;13.880;2023-07-13T05:13:03;20.50;99.90
26745;DHT22;14342;50.960;13.880;2023-07-13T05:14:05;20.60;99.90
26745;DHT22;14342;50.960;13.880;2023-07-13T05:15:06;20.60;99.90
26745;DHT22;14342;50.960;13.880;2023-07-13T05:16:07;20.60;99.90
26745;DHT22;14342;50.960;13.880;2023-07-13T05:17:08;20.60;99.90
26745;DHT22;14342;50.960;13.880;2023-07-13T05:18:10;20.60;99.90
26745;DHT22;14342;50.960;13.880;2023-07-13T05:19:11;20.60;99.90
26745;DHT22;14342;50.960;13.880;2023-07-13T05:20:12;20.70;99.90
26745;DHT22;14342;50.960;13.880;2023-07-13T05:21:13;20.70;99.90
26745;DHT22;14342;50.960;13.880;2023-07-13T05:22:14;20.70;99.90
26745;DHT22;14342;50.960;13.880;2023-07-13T05:23:15;20.70;99.90
26745;DHT22;14342;50.960;13.880;2023-07-13T05:24:16;20.80;99.90
26745;DHT22;14342;50.960;13.880;2023-07-13T05:25:17;20.80;99.90
26745;DHT22;14342;50.960;13.880;2023-07-13T05:26:20;20.80;99.90
26745;DHT22;14342;50.960;13.880;2023-07-13T05:27:21;20.90;99.90
26745;DHT22;14342;50.960;13.880;2023-07-13T05:28:23;20.90;99.90
26745;DHT22;14342;50.960;13.880;2023-07-13T05:29:24;20.90;99.90
26745;DHT22;14342;50.960;13.880;2023-07-13T05:30:25;20.90;99.90
26745;DHT22;14342;50.960;13.880;2023-07-13T05:31:26;20.80;99.90
26745;DHT22;14342;50.960;13.880;2023-07-13T05:32:28;20.90;99.90
26745;DHT22;14342;50.960;13.880;2023-07-13T05:33:29;20.90;99.90
26745;DHT22;14342;50.960;13.880;2023-07-13T05:34:30;20.90;99.90
26745;DHT22;14342;50.960;13.880;2023-07-13T05:35:31;20.90;99.90
26745;DHT22;14342;50.960;13.880;2023-07-13T05:36:32;20.90;99.90
26745;DHT22;14342;50.960;13.880;2023-07-13T05:37:33;21.00;99.90
26745;DHT22;14342;50.960;13.880;2023-07-13T05:38:34;20.90;99.90
26745;DHT22;14342;50.960;13.880;2023-07-13T05:39:35;20.80;99.90
26745;DHT22;14342;50.960;13.880;2023-07-13T05:40:37;20.80;99.90
26745;DHT22;14342;50.960;13.880;2023-07-13T05:41:39;20.80;99.90
26745;DHT22;14342;50.960;13.880;2023-07-13T05:42:40;20.90;99.90
26745;DHT22;14342;50.960;13.880;2023-07-13T05:43:41;20.90;99.90
26745;DHT22;14342;50.960;13.880;2023-07-13T05:44:43;20.90;99.90
26745;DHT22;14342;50.960;13.880;2023-07-13T05:45:43;20.90;99.90
26745;DHT22;14342;50.960;13.880;2023-07-13T05:46:45;20.90;99.90
26745;DHT22;14342;50.960;13.880;2023-07-13T05:47:45;20.90;99.90
26745;DHT22;14342;50.960;13.880;2023-07-13T05:48:47;21.00;99.90
26745;DHT22;14342;50.960;13.880;2023-07-13T05:49:48;21.00;99.90
26745;DHT22;14342;50.960;13.880;2023-07-13T05:50:49;21.00;99.90
26745;DHT22;14342;50.960;13.880;2023-07-13T05:51:50;21.00;99.90
26745;DHT22;14342;50.960;13.880;2023-07-13T05:52:51;21.10;99.90
26745;DHT22;14342;50.960;13.880;2023-07-13T05:53:52;21.40;99.90
26745;DHT22;14342;50.960;13.880;2023-07-13T05:54:54;21.10;99.90
26745;DHT22;14342;50.960;13.880;2023-07-13T05:55:55;21.10;99.90
26745;DHT22;14342;50.960;13.880;2023-07-13T05:56:58;21.10;99.90
26745;DHT22;14342;50.960;13.880;2023-07-13T05:57:59;21.20;99.90
26745;DHT22;14342;50.960;13.880;2023-07-13T05:59:01;21.20;99.90
26745;DHT22;14342;50.960;13.880;2023-07-13T06:00:01;21.20;99.90
26745;DHT22;14342;50.960;13.880;2023-07-13T06:01:04;21.20;99.90
26745;DHT22;14342;50.960;13.880;2023-07-13T06:02:05;21.20;99.90
26745;DHT22;14342;50.960;13.880;2023-07-13T06:03:06;21.30;99.90
26745;DHT22;14342;50.960;13.880;2023-07-13T06:04:07;21.30;99.90
26745;DHT22;14342;50.960;13.880;2023-07-13T06:05:09;21.30;99.90
26745;DHT22;14342;50.960;13.880;2023-07-13T06:06:09;21.30;99.90
26745;DHT22;14342;50.960;13.880;2023-07-13T06:07:11;21.30;99.90
26745;DHT22;14342;50.960;13.880;2023-07-13T06:08:12;21.40;99.90
26745;DHT22;14342;50.960;13.880;2023-07-13T06:09:13;21.70;99.90
26745;DHT22;14342;50.960;13.880;2023-07-13T06:10:14;21.40;99.90
26745;DHT22;14342;50.960;13.880;2023-07-13T06:11:17;21.50;99.90
26745;DHT22;14342;50.960;13.880;2023-07-13T06:12:19;21.50;99.90
26745;DHT22;14342;50.960;13.880;2023-07-13T06:13:20;21.50;99.90
26745;DHT22;14342;50.960;13.880;2023-07-13T06:14:21;21.50;99.90
26745;DHT22;14342;50.960;13.880;2023-07-13T06:15:23;21.50;99.90
26745;DHT22;14342;50.960;13.880;2023-07-13T06:16:23;21.60;99.90
26745;DHT22;14342;50.960;13.880;2023-07-13T06:17:25;21.60;99.90
26745;DHT22;14342;50.960;13.880;2023-07-13T06:18:25;21.70;99.90
26745;DHT22;14342;50.960;13.880;2023-07-13T06:19:27;21.70;99.90
26745;DHT22;14342;50.960;13.880;2023-07-13T06:20:28;21.70;99.90
26745;DHT22;14342;50.960;13.880;2023-07-13T06:21:30;21.70;99.90
26745;DHT22;14342;50.960;13.880;2023-07-13T06:22:31;21.80;99.90
26745;DHT22;14342;50.960;13.880;2023-07-13T06:23:32;21.70;99.90